Time;durP1;ratioP1;P1;durP2;ratioP2;P2;SDS_P1;SDS_P2;PMS_P1;PMS_P2;Temp;Humidity;BMP_temperature;BMP_pressure;BME280_temperature;BME280_humidity;BME280_pressure;Samples;Min_cycle;Max_cycle;Signal;HPM_P1;HPM_P2
2022/05/31 00:00:02;;;;;;;5.63;3.90;;;14.70;80.00;;;;;;5048927;28;20287;-74
2022/05/31 00:02:37;;;;;;;4.75;2.53;;;14.60;80.10;;;;;;5052681;28;20555;-74
2022/05/31 00:05:03;;;;;;;3.60;2.60;;;14.60;80.20;;;;;;5053253;28;20197;-75
2022/05/31 00:07:30;;;;;;;5.68;3.30;;;14.60;80.60;;;;;;5053727;28;20567;-75
2022/05/31 00:09:55;;;;;;;3.10;2.42;;;14.60;80.70;;;;;;5054159;28;20223;-75
2022/05/31 00:12:21;;;;;;;4.80;2.30;;;14.60;80.80;;;;;;5053423;28;20188;-75
2022/05/31 00:14:47;;;;;;;7.07;2.50;;;14.60;80.80;;;;;;5054749;28;20177;-74
2022/05/31 00:17:13;;;;;;;6.30;2.30;;;14.60;81.50;;;;;;5054799;28;20233;-74
2022/05/31 00:19:38;;;;;;;6.07;2.03;;;14.60;81.40;;;;;;5053537;28;20668;-74
2022/05/31 00:22:12;;;;;;;3.40;2.03;;;14.60;81.90;;;;;;5053238;28;20817;-74
2022/05/31 00:24:39;;;;;;;5.40;2.45;;;14.60;82.10;;;;;;5054595;28;20268;-74
2022/05/31 00:27:10;;;;;;;4.85;1.98;;;14.60;82.10;;;;;;5054170;28;20291;-75
2022/05/31 00:29:36;;;;;;;3.58;1.80;;;14.50;81.90;;;;;;5053706;28;20260;-75
2022/05/31 00:32:04;;;;;;;4.33;2.30;;;14.50;81.90;;;;;;5053185;28;20252;-75
2022/05/31 00:34:33;;;;;;;4.43;2.22;;;14.50;82.50;;;;;;5054163;28;20566;-74
2022/05/31 00:37:00;;;;;;;2.80;2.28;;;14.50;82.40;;;;;;5053834;28;20564;-74
2022/05/31 00:39:26;;;;;;;4.30;2.72;;;14.50;82.60;;;;;;5052347;28;20208;-74
2022/05/31 00:42:04;;;;;;;3.97;2.47;;;14.40;83.20;;;;;;5052796;28;20161;-75
2022/05/31 00:44:32;;;;;;;5.00;3.00;;;14.40;83.70;;;;;;5053143;28;20173;-74
2022/05/31 00:47:04;;;;;;;3.55;2.38;;;14.30;85.00;;;;;;5036153;28;20193;-74
2022/05/31 00:49:37;;;;;;;3.30;2.33;;;14.30;84.60;;;;;;5053718;28;20165;-74
2022/05/31 00:52:11;;;;;;;3.10;2.25;;;14.30;84.80;;;;;;5052826;28;20173;-74
2022/05/31 00:54:53;;;;;;;3.38;2.20;;;14.30;85.50;;;;;;5052986;28;20169;-75
2022/05/31 00:57:19;;;;;;;5.55;2.53;;;14.30;85.80;;;;;;5053875;28;20173;-75
2022/05/31 00:59:48;;;;;;;4.90;2.10;;;14.30;86.30;;;;;;5035192;28;20668;-74
2022/05/31 01:02:17;;;;;;;2.53;1.92;;;14.20;86.40;;;;;;5053796;28;20169;-74
2022/05/31 01:05:11;;;;;;;3.53;1.95;;;14.30;86.50;;;;;;5052446;28;20169;-75
2022/05/31 01:07:37;;;;;;;3.38;2.30;;;14.30;87.00;;;;;;5050420;28;20185;-74
2022/05/31 01:10:05;;;;;;;3.60;1.80;;;14.20;86.70;;;;;;5055103;28;20254;-74
2022/05/31 01:12:51;;;;;;;4.82;1.83;;;14.20;87.10;;;;;;5058085;28;20153;-74
2022/05/31 01:15:35;;;;;;;3.15;1.90;;;14.20;87.20;;;;;;5055487;28;20220;-74
2022/05/31 01:18:20;;;;;;;2.25;1.95;;;14.30;87.50;;;;;;5059201;28;20169;-74
2022/05/31 01:21:05;;;;;;;2.85;2.05;;;14.20;87.50;;;;;;5054518;28;20177;-74
2022/05/31 01:23:55;;;;;;;3.38;1.60;;;14.30;88.20;;;;;;5052756;28;20250;-74
2022/05/31 01:26:52;;;;;;;3.63;2.00;;;14.30;88.00;;;;;;5052474;28;20205;-75
2022/05/31 01:29:30;;;;;;;5.15;2.10;;;14.30;88.50;;;;;;5052036;28;20172;-75
2022/05/31 01:32:05;;;;;;;5.28;2.05;;;14.20;89.00;;;;;;5053035;28;20555;-75
2022/05/31 01:34:55;;;;;;;4.72;2.25;;;14.20;88.80;;;;;;5053412;28;20164;-75
2022/05/31 01:37:51;;;;;;;3.05;2.20;;;14.10;88.90;;;;;;5053211;28;20172;-74
2022/05/31 01:40:40;;;;;;;4.60;2.60;;;14.10;89.50;;;;;;5050947;28;20201;-75
2022/05/31 01:43:06;;;;;;;3.65;1.58;;;14.10;89.50;;;;;;5051952;28;20177;-75
2022/05/31 01:45:43;;;;;;;3.20;1.87;;;14.10;89.60;;;;;;5051489;28;20184;-74
2022/05/31 01:48:09;;;;;;;3.22;2.40;;;14.10;89.90;;;;;;5051733;28;20176;-74
2022/05/31 01:50:36;;;;;;;1.70;1.55;;;14.10;89.80;;;;;;5050987;28;20586;-75
2022/05/31 01:53:03;;;;;;;2.72;1.70;;;14.10;90.00;;;;;;5051810;28;20195;-75
2022/05/31 01:55:31;;;;;;;3.70;1.80;;;14.10;90.30;;;;;;5035215;28;20197;-75
2022/05/31 01:58:00;;;;;;;3.05;1.90;;;14.00;90.30;;;;;;5051607;28;20574;-74
2022/05/31 02:00:27;;;;;;;2.08;1.75;;;14.00;90.40;;;;;;5050518;28;20247;-74
2022/05/31 02:02:56;;;;;;;3.10;1.83;;;14.00;90.80;;;;;;5052212;28;20172;-72
2022/05/31 02:05:22;;;;;;;4.28;1.80;;;14.00;91.00;;;;;;5051181;28;20572;-73
2022/05/31 02:07:56;;;;;;;5.15;2.00;;;13.90;90.90;;;;;;5051390;28;20173;-73
2022/05/31 02:10:23;;;;;;;2.67;1.80;;;13.90;90.90;;;;;;5050479;28;20633;-72
2022/05/31 02:12:49;;;;;;;5.65;2.20;;;13.90;91.00;;;;;;5050405;28;20255;-73
2022/05/31 02:15:18;;;;;;;2.90;1.33;;;13.90;91.20;;;;;;5051198;28;21016;-72
2022/05/31 02:18:04;;;;;;;3.05;1.58;;;13.80;91.00;;;;;;5051448;28;20705;-72
2022/05/31 02:20:53;;;;;;;3.00;1.45;;;13.90;91.10;;;;;;5022654;28;20185;-74
2022/05/31 02:23:18;;;;;;;2.30;1.73;;;13.80;91.10;;;;;;5052270;28;20177;-73
2022/05/31 02:25:44;;;;;;;3.30;1.60;;;13.80;91.20;;;;;;5050181;28;20201;-73
2022/05/31 02:28:10;;;;;;;3.17;1.73;;;13.80;91.30;;;;;;5050819;28;20173;-73
2022/05/31 02:30:37;;;;;;;4.83;2.23;;;13.80;91.40;;;;;;5050231;28;20176;-73
2022/05/31 02:33:03;;;;;;;4.15;1.88;;;13.80;91.50;;;;;;5050647;28;20575;-73
2022/05/31 02:35:29;;;;;;;3.45;1.80;;;13.80;91.70;;;;;;5052050;28;20560;-73
2022/05/31 02:37:56;;;;;;;2.35;1.85;;;13.70;91.60;;;;;;5050980;28;20165;-73
2022/05/31 02:40:22;;;;;;;2.67;1.40;;;13.70;91.80;;;;;;5033084;28;20673;-73
2022/05/31 02:42:48;;;;;;;3.70;1.83;;;13.70;91.80;;;;;;5050129;28;20157;-73
2022/05/31 02:45:14;;;;;;;3.03;1.67;;;13.70;92.00;;;;;;5033926;28;20220;-73
2022/05/31 02:47:41;;;;;;;2.20;1.33;;;13.70;92.20;;;;;;5050533;28;20576;-73
2022/05/31 02:50:07;;;;;;;3.67;1.60;;;13.70;92.20;;;;;;5049919;28;20169;-73
2022/05/31 02:52:34;;;;;;;3.30;1.85;;;13.60;92.30;;;;;;5050725;28;20680;-73
2022/05/31 02:55:01;;;;;;;2.25;1.73;;;13.60;92.50;;;;;;5050629;28;20226;-73
2022/05/31 02:57:27;;;;;;;4.17;2.00;;;13.60;92.50;;;;;;5051438;28;20169;-73
2022/05/31 03:00:14;;;;;;;2.53;1.63;;;13.60;92.50;;;;;;5050630;28;20208;-73
2022/05/31 03:02:58;;;;;;;3.20;1.83;;;13.60;92.80;;;;;;5050671;28;20252;-73
2022/05/31 03:05:56;;;;;;;2.60;1.30;;;13.50;92.80;;;;;;5049993;28;20246;-73
2022/05/31 03:08:36;;;;;;;3.80;1.40;;;13.50;92.90;;;;;;5050537;28;20177;-73
2022/05/31 03:11:17;;;;;;;2.78;1.40;;;13.50;93.00;;;;;;5049497;28;20169;-73
2022/05/31 03:13:46;;;;;;;3.70;1.52;;;13.50;93.10;;;;;;5050306;28;20367;-73
2022/05/31 03:16:13;;;;;;;4.43;1.80;;;13.50;93.30;;;;;;5050194;28;20267;-73
2022/05/31 03:18:46;;;;;;;2.17;1.30;;;13.50;93.40;;;;;;5050346;28;20175;-73
2022/05/31 03:21:20;;;;;;;2.38;1.30;;;13.50;93.40;;;;;;5050624;28;20259;-73
2022/05/31 03:23:53;;;;;;;2.50;1.20;;;13.50;93.40;;;;;;5050235;28;20169;-73
2022/05/31 03:26:21;;;;;;;3.15;1.60;;;13.60;93.50;;;;;;5049792;28;20220;-73
2022/05/31 03:28:47;;;;;;;2.85;1.75;;;13.60;93.60;;;;;;5050261;28;20173;-73
2022/05/31 03:31:14;;;;;;;2.35;1.40;;;13.60;93.60;;;;;;5049087;28;20534;-73
2022/05/31 03:33:39;;;;;;;2.75;1.33;;;13.60;93.60;;;;;;5050205;28;20177;-73
2022/05/31 03:36:06;;;;;;;3.97;1.60;;;13.60;93.70;;;;;;5050444;28;20193;-74
2022/05/31 03:38:39;;;;;;;2.22;1.10;;;13.60;93.90;;;;;;5054330;28;20579;-73
2022/05/31 03:41:06;;;;;;;2.72;1.50;;;13.60;93.80;;;;;;5052886;28;20649;-73
2022/05/31 03:43:43;;;;;;;2.58;1.13;;;13.70;93.90;;;;;;5054333;28;20534;-73
2022/05/31 03:46:20;;;;;;;2.67;1.55;;;13.70;94.00;;;;;;5054981;28;20196;-73
2022/05/31 03:49:05;;;;;;;2.80;1.38;;;13.70;94.00;;;;;;5054133;28;20259;-73
2022/05/31 03:51:38;;;;;;;3.50;1.52;;;13.70;94.10;;;;;;5050180;23;20214;-76
2022/05/31 03:54:13;;;;;;;2.25;1.30;;;13.70;94.20;;;;;;5001914;28;20181;-77
2022/05/31 03:57:06;;;;;;;2.38;1.30;;;13.70;94.10;;;;;;5015619;28;20182;-77
2022/05/31 03:59:36;;;;;;;3.50;1.30;;;13.80;94.30;;;;;;5027035;28;20234;-77
2022/05/31 04:02:04;;;;;;;3.47;1.42;;;13.80;94.30;;;;;;5008305;28;20190;-77
2022/05/31 04:04:30;;;;;;;2.55;1.25;;;13.80;94.40;;;;;;5004514;28;20167;-77
2022/05/31 04:06:55;;;;;;;4.70;1.83;;;13.80;94.40;;;;;;5002027;28;20581;-77
2022/05/31 04:09:21;;;;;;;3.17;1.30;;;13.80;94.50;;;;;;5021553;28;20170;-77
2022/05/31 04:11:47;;;;;;;2.77;1.43;;;13.90;94.50;;;;;;5005519;28;20195;-77
2022/05/31 04:14:27;;;;;;;3.20;1.65;;;13.90;94.50;;;;;;5010032;28;20681;-77
2022/05/31 04:17:01;;;;;;;3.25;1.20;;;13.90;94.50;;;;;;5008864;28;20175;-77
2022/05/31 04:19:26;;;;;;;5.77;1.33;;;14.00;94.50;;;;;;5002943;28;20238;-77
2022/05/31 04:21:52;;;;;;;2.67;1.40;;;14.00;94.60;;;;;;5016196;28;20250;-77
2022/05/31 04:24:21;;;;;;;3.30;1.30;;;14.10;94.80;;;;;;5023260;28;20213;-77
2022/05/31 04:27:07;;;;;;;2.92;1.27;;;14.10;94.80;;;;;;4999087;28;20175;-77
2022/05/31 04:30:01;;;;;;;2.88;1.23;;;14.20;94.70;;;;;;5014405;28;20183;-77
2022/05/31 04:32:47;;;;;;;3.83;1.60;;;14.20;94.70;;;;;;5000924;28;20201;-77
2022/05/31 04:35:19;;;;;;;4.18;1.20;;;14.20;94.70;;;;;;5021941;28;20181;-78
2022/05/31 04:37:45;;;;;;;2.63;1.57;;;14.20;94.60;;;;;;5024349;28;20181;-77
2022/05/31 04:40:19;;;;;;;2.50;1.38;;;14.30;94.70;;;;;;5001659;28;20202;-77
2022/05/31 04:43:00;;;;;;;3.65;1.58;;;14.30;94.80;;;;;;5014264;28;20649;-77
2022/05/31 04:45:45;;;;;;;2.13;1.55;;;14.40;95.00;;;;;;5013581;28;20261;-77
2022/05/31 04:48:23;;;;;;;2.72;1.30;;;14.50;95.20;;;;;;5013382;28;20261;-77
2022/05/31 04:50:49;;;;;;;3.30;1.30;;;14.50;95.30;;;;;;5028925;28;20339;-77
2022/05/31 04:53:16;;;;;;;4.57;1.10;;;14.60;95.60;;;;;;5029820;28;20675;-77
2022/05/31 04:56:04;;;;;;;2.80;1.15;;;14.70;95.70;;;;;;5016136;28;20646;-77
2022/05/31 04:58:31;;;;;;;3.88;1.52;;;14.70;95.90;;;;;;5033987;28;20285;-77
2022/05/31 05:01:01;;;;;;;1.90;1.15;;;14.80;96.00;;;;;;5029291;28;20189;-77
2022/05/31 05:03:30;;;;;;;2.92;1.20;;;14.80;96.20;;;;;;5030376;28;20237;-77
2022/05/31 05:06:01;;;;;;;5.70;1.30;;;14.80;95.80;;;;;;4997847;28;20252;-77
2022/05/31 05:08:28;;;;;;;5.32;1.33;;;14.80;95.80;;;;;;5030950;28;20257;-78
2022/05/31 05:10:54;;;;;;;2.38;1.27;;;14.80;95.80;;;;;;5015363;28;20190;-77
2022/05/31 05:13:40;;;;;;;4.55;1.30;;;14.80;95.50;;;;;;5030396;28;20174;-77
2022/05/31 05:16:21;;;;;;;2.28;0.90;;;14.70;95.20;;;;;;5015388;28;20261;-78
2022/05/31 05:18:52;;;;;;;3.72;1.30;;;14.70;95.10;;;;;;4966157;28;20202;-78
2022/05/31 05:21:18;;;;;;;2.33;1.50;;;14.60;95.30;;;;;;5027800;28;20189;-77
2022/05/31 05:23:44;;;;;;;3.65;1.38;;;14.50;95.40;;;;;;5012195;28;20174;-77
2022/05/31 05:26:13;;;;;;;3.25;1.83;;;14.40;95.40;;;;;;5029331;28;20589;-77
2022/05/31 05:31:41;;;;;;;2.67;1.58;;;14.10;96.40;;;;;;5020038;28;20316;-77
2022/05/31 05:34:26;;;;;;;2.38;1.33;;;14.00;96.10;;;;;;5005732;28;20226;-77
2022/05/31 05:36:57;;;;;;;4.10;1.50;;;13.90;96.20;;;;;;5030027;28;20244;-78
2022/05/31 05:39:23;;;;;;;2.65;1.13;;;13.90;96.20;;;;;;5012850;28;20190;-77
2022/05/31 05:42:16;;;;;;;7.53;1.65;;;14.00;96.90;;;;;;5014427;28;20194;-77
2022/05/31 05:44:54;;;;;;;2.53;0.90;;;14.00;96.50;;;;;;5013810;28;20169;-77
2022/05/31 05:47:20;;;;;;;2.58;1.40;;;14.10;96.70;;;;;;5029657;28;20264;-77
2022/05/31 05:49:46;;;;;;;2.10;1.00;;;14.20;96.80;;;;;;5028868;28;20214;-77
2022/05/31 05:52:31;;;;;;;3.28;1.40;;;14.30;96.80;;;;;;5013677;28;20192;-77
2022/05/31 05:55:22;;;;;;;2.25;0.90;;;14.50;97.00;;;;;;5001675;28;20561;-77
2022/05/31 05:58:08;;;;;;;2.60;1.02;;;14.70;97.10;;;;;;4990632;28;20191;-77
2022/05/31 06:00:53;;;;;;;2.65;0.90;;;14.80;97.00;;;;;;4985544;28;20213;-77
2022/05/31 06:03:43;;;;;;;2.92;1.00;;;15.00;97.00;;;;;;4977270;28;20234;-76
2022/05/31 06:06:11;;;;;;;3.93;1.27;;;15.10;96.70;;;;;;4987344;28;20187;-76
2022/05/31 06:08:47;;;;;;;3.03;1.20;;;15.20;96.50;;;;;;4993035;28;20693;-76
2022/05/31 06:11:25;;;;;;;2.70;1.27;;;15.40;96.00;;;;;;4987662;28;21132;-76
2022/05/31 06:13:58;;;;;;;2.07;1.10;;;16.10;96.90;;;;;;4991625;28;20175;-75
2022/05/31 06:16:32;;;;;;;2.13;1.10;;;16.70;97.90;;;;;;5008304;28;20669;-75
2022/05/31 06:19:05;;;;;;;3.37;0.97;;;17.40;97.20;;;;;;5007450;28;20708;-75
2022/05/31 06:21:31;;;;;;;2.17;1.00;;;18.10;97.40;;;;;;4990900;28;20637;-75
2022/05/31 06:24:05;;;;;;;2.63;1.27;;;18.80;97.50;;;;;;5007939;28;20577;-75
2022/05/31 06:26:32;;;;;;;3.00;1.20;;;19.80;96.40;;;;;;5007903;28;20593;-75
2022/05/31 06:29:03;;;;;;;1.70;0.80;;;20.90;97.40;;;;;;4991492;28;20741;-75
2022/05/31 06:31:29;;;;;;;2.85;1.30;;;21.90;96.20;;;;;;4989861;28;20772;-75
2022/05/31 06:33:55;;;;;;;2.57;1.00;;;23.00;85.30;;;;;;4990937;28;20166;-76
2022/05/31 06:36:33;;;;;;;1.93;0.90;;;23.10;89.20;;;;;;4991389;28;20996;-76
2022/05/31 06:38:58;;;;;;;2.47;0.90;;;23.70;86.00;;;;;;4991363;28;20610;-76
2022/05/31 06:41:24;;;;;;;4.37;1.10;;;24.10;81.90;;;;;;5002988;28;20250;-76
2022/05/31 06:44:09;;;;;;;2.25;1.00;;;24.50;81.50;;;;;;4985226;28;20726;-75
2022/05/31 06:46:56;;;;;;;2.10;1.20;;;24.60;65.80;;;;;;4992331;28;20167;-76
2022/05/31 06:49:41;;;;;;;3.47;0.90;;;24.20;68.10;;;;;;4981949;28;20614;-74
2022/05/31 06:58:28;;;;;;;2.80;0.90;;;23.60;73.00;;;;;;5007654;28;20578;-74
2022/05/31 07:00:56;;;;;;;1.60;0.90;;;24.10;74.40;;;;;;5006095;28;20646;-74
2022/05/31 07:03:22;;;;;;;2.47;0.80;;;24.60;74.60;;;;;;5006520;28;21102;-75
2022/05/31 07:05:56;;;;;;;3.10;0.83;;;24.90;71.40;;;;;;4990396;28;20171;-75
2022/05/31 07:08:21;;;;;;;2.13;1.20;;;24.90;68.50;;;;;;4990980;28;20619;-74
2022/05/31 07:11:02;;;;;;;3.30;1.00;;;25.00;70.40;;;;;;4988204;28;20610;-75
2022/05/31 07:13:47;;;;;;;1.90;0.70;;;25.10;69.00;;;;;;4991688;28;20570;-74
2022/05/31 07:16:31;;;;;;;1.63;0.93;;;25.00;69.10;;;;;;4990621;28;20577;-75
2022/05/31 07:19:20;;;;;;;2.30;0.90;;;24.80;67.90;;;;;;4986878;28;20660;-75
2022/05/31 07:21:47;;;;;;;1.93;0.80;;;24.30;66.40;;;;;;5006686;28;20623;-74
2022/05/31 07:24:13;;;;;;;3.30;0.93;;;23.90;65.80;;;;;;4990900;28;20574;-75
2022/05/31 07:26:58;;;;;;;2.27;0.90;;;23.60;65.90;;;;;;4996790;28;20631;-75
2022/05/31 07:29:25;;;;;;;1.87;0.90;;;23.10;66.40;;;;;;4974281;28;20670;-75
2022/05/31 07:31:52;;;;;;;2.70;0.90;;;22.60;63.90;;;;;;4989839;28;20218;-74
2022/05/31 07:34:19;;;;;;;1.77;1.00;;;22.10;64.90;;;;;;4997626;28;21184;-75
2022/05/31 07:36:45;;;;;;;2.47;1.50;;;21.70;65.60;;;;;;5009521;28;20652;-75
2022/05/31 07:39:14;;;;;;;3.40;1.17;;;21.30;65.50;;;;;;5009515;28;20778;-74
2022/05/31 07:41:41;;;;;;;2.83;1.10;;;20.90;65.70;;;;;;5025757;28;20612;-74
2022/05/31 07:44:08;;;;;;;3.67;1.40;;;20.60;66.10;;;;;;5026583;28;20653;-75
2022/05/31 07:46:36;;;;;;;6.03;1.53;;;20.20;65.60;;;;;;5013552;28;20602;-75
2022/05/31 07:49:02;;;;;;;1.87;0.90;;;19.90;66.00;;;;;;4998324;28;21020;-76
2022/05/31 07:51:49;;;;;;;2.17;0.90;;;19.70;66.20;;;;;;5006135;28;20746;-75
2022/05/31 07:54:34;;;;;;;3.10;1.00;;;19.50;67.40;;;;;;4994924;28;20667;-75
2022/05/31 08:00:31;;;;;;;3.87;1.17;;;19.20;69.00;;;;;;4989912;28;20723;-81
2022/05/31 08:02:58;;;;;;;4.90;1.00;;;19.10;69.70;;;;;;4995812;28;20585;-81
2022/05/31 08:05:24;;;;;;;2.27;0.90;;;18.90;69.80;;;;;;4992392;28;20574;-80
2022/05/31 08:07:49;;;;;;;3.70;0.90;;;18.80;70.60;;;;;;4989666;28;20322;-80
2022/05/31 08:10:17;;;;;;;3.03;0.90;;;18.70;71.40;;;;;;4991268;28;20175;-79
2022/05/31 08:12:43;;;;;;;2.00;1.00;;;18.50;71.40;;;;;;4990573;28;20520;-81
2022/05/31 08:15:10;;;;;;;3.30;1.00;;;18.20;72.50;;;;;;4988894;28;20578;-81
2022/05/31 08:17:36;;;;;;;2.97;1.00;;;18.10;73.40;;;;;;4989312;28;20589;-82
2022/05/31 08:20:04;;;;;;;2.77;0.90;;;17.90;73.50;;;;;;5001123;28;20725;-81
2022/05/31 08:22:30;;;;;;;2.47;1.20;;;17.70;73.70;;;;;;4992578;28;20568;-81
2022/05/31 08:24:56;;;;;;;3.43;1.10;;;17.50;74.60;;;;;;4985223;28;20942;-83
2022/05/31 08:27:21;;;;;;;3.20;1.13;;;17.40;76.10;;;;;;4975985;28;20573;-80
2022/05/31 08:29:47;;;;;;;1.57;0.90;;;17.20;76.50;;;;;;4975280;28;20203;-81
2022/05/31 08:32:14;;;;;;;1.93;0.90;;;17.10;76.80;;;;;;4974061;28;20212;-80
2022/05/31 08:34:40;;;;;;;2.83;1.00;;;17.10;78.50;;;;;;4976033;28;20258;-81
2022/05/31 08:37:06;;;;;;;2.80;1.10;;;17.00;79.30;;;;;;4989532;28;20681;-81
2022/05/31 08:39:31;;;;;;;1.90;1.03;;;17.00;80.40;;;;;;5013338;28;20187;-80
2022/05/31 08:42:09;;;;;;;3.40;1.13;;;17.00;80.90;;;;;;4995935;28;20187;-80
2022/05/31 08:44:52;;;;;;;3.00;0.90;;;17.00;82.50;;;;;;4993888;28;20179;-79
2022/05/31 08:47:18;;;;;;;3.33;1.37;;;17.00;82.40;;;;;;4992837;28;20729;-79
2022/05/31 08:53:11;;;;;;;3.63;1.40;;;17.10;84.20;;;;;;4980594;28;20195;-81
2022/05/31 08:58:49;;;;;;;2.53;1.03;;;17.20;85.20;;;;;;4980678;28;20969;-80
2022/05/31 09:01:20;;;;;;;2.80;1.23;;;17.20;85.40;;;;;;4985193;28;20631;-80
2022/05/31 09:03:59;;;;;;;3.37;1.67;;;17.10;86.10;;;;;;4995910;28;20602;-83
2022/05/31 09:06:44;;;;;;;3.80;1.10;;;17.10;86.60;;;;;;4992082;28;21019;-82
2022/05/31 09:09:26;;;;;;;1.90;1.00;;;17.00;86.40;;;;;;4978123;28;20590;-82
2022/05/31 09:12:23;;;;;;;5.17;1.50;;;16.80;86.70;;;;;;4994315;28;20663;-83
2022/05/31 09:15:04;;;;;;;4.00;1.40;;;16.70;87.00;;;;;;4989886;28;20596;-82
2022/05/31 09:17:29;;;;;;;2.70;1.17;;;16.70;88.50;;;;;;5016335;28;20581;-83
2022/05/31 09:20:07;;;;;;;3.77;1.10;;;16.60;87.70;;;;;;5012005;28;20624;-83
2022/05/31 09:22:35;;;;;;;4.30;1.60;;;16.60;89.60;;;;;;4957252;28;20176;-83
2022/05/31 09:25:02;;;;;;;3.20;1.60;;;16.50;90.40;;;;;;4983703;28;20592;-83
2022/05/31 09:27:40;;;;;;;2.53;1.00;;;16.50;90.70;;;;;;5008512;28;20726;-83
2022/05/31 09:30:20;;;;;;;3.60;1.90;;;16.50;91.10;;;;;;5007455;28;20664;-83
2022/05/31 09:33:07;;;;;;;3.47;1.40;;;16.60;91.70;;;;;;4994451;28;20628;-83
2022/05/31 09:35:42;;;;;;;2.17;1.00;;;17.00;93.20;;;;;;4995088;28;20570;-83
2022/05/31 09:38:22;;;;;;;4.60;1.40;;;17.80;95.60;;;;;;4994089;28;20718;-82
2022/05/31 09:41:06;;;;;;;4.50;1.47;;;19.10;97.10;;;;;;5008581;28;20641;-82
2022/05/31 09:43:40;;;;;;;3.80;1.50;;;20.30;97.00;;;;;;5008033;28;20594;-81
2022/05/31 09:46:14;;;;;;;2.17;1.00;;;21.50;97.70;;;;;;4983502;28;20601;-81
2022/05/31 09:48:46;;;;;;;4.40;1.90;;;22.70;98.00;;;;;;5001038;28;20722;-81
2022/05/31 09:51:42;;;;;;;2.63;1.20;;;23.70;93.10;;;;;;4994095;28;20198;-81
2022/05/31 09:57:27;;;;;;;3.03;0.90;;;24.90;92.10;;;;;;4982170;28;20591;-81
2022/05/31 10:00:15;;;;;;;2.77;0.90;;;25.20;90.30;;;;;;4989053;28;21575;-81
2022/05/31 10:03:14;;;;;;;2.37;1.40;;;25.30;88.30;;;;;;4975061;28;20567;-81
2022/05/31 10:05:42;;;;;;;2.33;1.13;;;25.30;87.00;;;;;;5005674;28;20646;-82
2022/05/31 10:08:16;;;;;;;1.77;1.00;;;25.50;87.10;;;;;;4988757;28;20583;-82
2022/05/31 10:10:48;;;;;;;2.23;1.40;;;25.60;80.90;;;;;;5012539;28;20648;-83
2022/05/31 10:13:34;;;;;;;2.83;1.83;;;25.80;86.00;;;;;;5006251;28;20620;-82
2022/05/31 10:16:18;;;;;;;2.03;1.00;;;26.10;84.30;;;;;;5011963;28;20592;-82
2022/05/31 10:18:51;;;;;;;4.13;1.90;;;26.40;84.30;;;;;;5006318;28;20581;-83
2022/05/31 10:21:34;;;;;;;3.60;1.17;;;26.60;82.10;;;;;;4989655;28;21090;-83
2022/05/31 10:24:16;;;;;;;2.87;1.20;;;26.70;80.70;;;;;;5008657;28;20236;-83
2022/05/31 10:27:13;;;;;;;2.37;1.20;;;26.90;82.00;;;;;;4973220;28;20641;-83
2022/05/31 10:30:09;;;;;;;1.93;1.07;;;27.10;77.20;;;;;;4991493;28;20593;-82
2022/05/31 10:33:10;;;;;;;2.73;1.00;;;27.30;78.20;;;;;;4996439;28;20709;-81
2022/05/31 10:35:40;;;;;;;2.57;1.40;;;27.60;77.20;;;;;;5006455;28;20586;-81
2022/05/31 10:38:18;;;;;;;2.40;1.20;;;27.80;77.50;;;;;;5013351;28;20595;-81
2022/05/31 10:40:58;;;;;;;2.80;1.30;;;28.10;76.20;;;;;;5001834;28;20649;-80
2022/05/31 10:43:32;;;;;;;2.17;1.23;;;28.60;77.20;;;;;;4990078;28;20687;-83
2022/05/31 10:46:01;;;;;;;2.33;1.03;;;29.20;77.10;;;;;;4991691;28;20566;-83
2022/05/31 10:48:27;;;;;;;2.03;1.00;;;29.80;76.10;;;;;;4992723;28;20570;-83
2022/05/31 10:51:07;;;;;;;2.43;1.20;;;30.20;73.20;;;;;;4988975;28;20656;-83
2022/05/31 10:53:51;;;;;;;2.00;1.10;;;30.20;67.50;;;;;;4991424;28;20190;-83
2022/05/31 10:56:46;;;;;;;2.20;1.30;;;30.20;66.70;;;;;;5007768;28;20598;-83
2022/05/31 10:59:20;;;;;;;2.17;0.90;;;30.00;63.50;;;;;;4992419;28;20640;-83
2022/05/31 11:02:13;;;;;;;3.60;1.00;;;29.80;63.70;;;;;;4992968;28;20602;-83
2022/05/31 11:05:00;;;;;;;2.27;1.10;;;29.60;60.90;;;;;;4992238;28;20574;-83
2022/05/31 11:13:47;;;;;;;2.80;0.90;;;29.20;59.80;;;;;;5010973;28;20577;-82
2022/05/31 11:16:22;;;;;;;2.07;0.93;;;29.30;63.40;;;;;;4999726;28;20594;-83
2022/05/31 11:18:55;;;;;;;1.60;0.80;;;29.50;62.40;;;;;;4992476;28;20661;-83
2022/05/31 11:21:44;;;;;;;1.60;1.00;;;29.50;60.20;;;;;;4990038;28;20609;-84
2022/05/31 11:24:22;;;;;;;2.33;1.40;;;29.40;59.10;;;;;;5002653;28;20615;-84
2022/05/31 11:27:09;;;;;;;2.47;1.30;;;29.20;58.50;;;;;;4990638;28;21132;-82
2022/05/31 11:29:54;;;;;;;2.30;1.20;;;29.00;57.70;;;;;;4989915;28;20597;-81
2022/05/31 11:32:44;;;;;;;3.10;1.33;;;29.00;58.60;;;;;;4991498;28;20660;-81
2022/05/31 11:35:49;;;;;;;2.30;1.07;;;29.00;59.10;;;;;;4991054;28;20574;-81
2022/05/31 11:38:15;;;;;;;3.40;1.53;;;29.10;59.40;;;;;;4991558;28;20579;-80
2022/05/31 11:41:02;;;;;;;1.87;0.90;;;29.40;60.70;;;;;;4991366;28;20748;-80
2022/05/31 11:43:41;;;;;;;2.60;1.00;;;29.70;59.90;;;;;;4986385;28;20722;-80
2022/05/31 11:46:28;;;;;;;2.67;1.13;;;29.90;56.70;;;;;;4993899;28;20167;-82
2022/05/31 11:49:03;;;;;;;2.47;1.40;;;29.90;56.60;;;;;;4975383;28;20665;-82
2022/05/31 11:52:07;;;;;;;3.63;1.23;;;29.90;54.90;;;;;;4990612;28;20740;-80
2022/05/31 11:55:25;;;;;;;2.13;1.20;;;29.90;56.20;;;;;;5008510;28;20593;-81
2022/05/31 11:58:06;;;;;;;2.43;1.00;;;29.90;55.30;;;;;;4991656;28;20578;-80
2022/05/31 12:01:04;;;;;;;2.80;1.40;;;29.80;54.70;;;;;;4994102;28;22444;-82
2022/05/31 12:04:04;;;;;;;2.27;1.00;;;29.40;53.20;;;;;;4996721;28;20577;-79
2022/05/31 12:06:43;;;;;;;2.37;0.90;;;29.20;53.90;;;;;;4978222;28;20582;-79
2022/05/31 12:09:30;;;;;;;1.97;1.10;;;29.00;53.00;;;;;;4994963;28;20649;-79
2022/05/31 12:12:12;;;;;;;1.60;0.80;;;28.70;52.90;;;;;;4993909;28;20606;-79
2022/05/31 12:14:44;;;;;;;1.93;1.27;;;28.50;52.30;;;;;;4989572;28;20609;-82
2022/05/31 12:17:11;;;;;;;2.80;1.70;;;28.20;52.50;;;;;;5007664;28;20968;-80
2022/05/31 12:20:00;;;;;;;1.93;1.23;;;27.90;52.60;;;;;;5005666;28;20727;-79
2022/05/31 12:22:36;;;;;;;2.17;0.90;;;27.70;52.40;;;;;;5015810;28;20644;-79
2022/05/31 12:25:12;;;;;;;1.73;0.93;;;27.60;52.90;;;;;;5005471;28;20696;-82
2022/05/31 12:28:05;;;;;;;1.80;0.83;;;27.50;53.00;;;;;;4996457;28;21048;-81
2022/05/31 12:30:38;;;;;;;2.40;0.90;;;27.50;52.50;;;;;;4984787;28;20623;-81
2022/05/31 12:33:43;;;;;;;2.33;0.80;;;27.40;52.80;;;;;;4986939;28;21156;-81
2022/05/31 12:36:12;;;;;;;1.80;1.03;;;27.40;52.60;;;;;;4985038;28;20704;-82
2022/05/31 12:39:04;;;;;;;2.23;0.90;;;27.30;52.60;;;;;;4997361;28;20610;-83
2022/05/31 12:41:34;;;;;;;3.37;1.00;;;27.30;52.60;;;;;;4974645;28;20602;-82
2022/05/31 12:44:01;;;;;;;2.07;0.80;;;27.30;52.50;;;;;;5008700;28;20582;-83
2022/05/31 12:46:37;;;;;;;2.03;1.00;;;27.30;52.30;;;;;;4997626;28;20579;-84
2022/05/31 12:49:09;;;;;;;1.60;0.70;;;27.30;51.80;;;;;;4990707;28;20583;-83
2022/05/31 12:51:35;;;;;;;1.60;0.70;;;27.20;51.90;;;;;;4975195;28;20737;-84
2022/05/31 12:54:04;;;;;;;2.23;0.90;;;27.10;52.10;;;;;;4975371;28;20666;-82
2022/05/31 12:56:30;;;;;;;2.40;0.90;;;27.10;51.00;;;;;;4993600;28;20218;-82
2022/05/31 12:58:56;;;;;;;2.87;0.70;;;27.00;51.10;;;;;;5007781;28;20649;-82
2022/05/31 13:01:22;;;;;;;3.50;1.10;;;26.90;50.90;;;;;;4993221;28;20203;-83
2022/05/31 13:03:51;;;;;;;1.60;1.37;;;26.90;50.80;;;;;;4994763;28;20720;-82
2022/05/31 13:06:21;;;;;;;1.33;0.60;;;26.80;49.80;;;;;;4993852;28;20207;-82
2022/05/31 13:20:00;;;;;;;2.67;0.90;;;26.10;49.70;;;;;;4986755;28;20724;-83
2022/05/31 13:22:32;;;;;;;1.93;1.07;;;25.80;49.80;;;;;;4989628;28;20634;-82
2022/05/31 13:25:05;;;;;;;2.03;1.07;;;25.60;50.40;;;;;;4993162;28;21376;-82
2022/05/31 13:27:37;;;;;;;5.20;1.13;;;25.30;50.40;;;;;;4993156;28;20653;-82
2022/05/31 13:30:09;;;;;;;1.63;0.97;;;25.10;50.40;;;;;;4993690;28;20574;-81
2022/05/31 13:32:36;;;;;;;3.60;1.30;;;25.00;50.80;;;;;;5008692;28;20589;-80
2022/05/31 13:35:13;;;;;;;1.80;0.70;;;25.00;51.40;;;;;;4993983;28;20674;-81
2022/05/31 13:37:56;;;;;;;5.50;1.00;;;25.00;50.90;;;;;;5010637;28;20601;-82
2022/05/31 13:40:46;;;;;;;1.40;0.80;;;24.90;51.30;;;;;;4992224;28;21243;-82
2022/05/31 13:43:21;;;;;;;1.67;0.80;;;24.90;50.90;;;;;;4993576;28;20562;-82
2022/05/31 13:45:50;;;;;;;1.87;0.80;;;24.80;51.00;;;;;;4993157;28;20948;-83
2022/05/31 13:48:21;;;;;;;2.30;1.43;;;24.80;51.50;;;;;;4992999;28;20594;-83
2022/05/31 13:50:57;;;;;;;6.07;1.70;;;24.80;51.50;;;;;;4998941;28;20652;-82
2022/05/31 13:53:24;;;;;;;1.93;1.30;;;24.80;51.70;;;;;;5008520;28;20593;-82
2022/05/31 13:55:58;;;;;;;1.73;0.90;;;24.90;52.00;;;;;;4982214;28;20983;-81
2022/05/31 13:58:35;;;;;;;1.60;0.90;;;24.90;51.80;;;;;;4988742;28;21107;-83
2022/05/31 14:01:04;;;;;;;2.67;1.00;;;24.90;51.50;;;;;;4989085;28;20635;-82
2022/05/31 14:03:34;;;;;;;1.87;0.90;;;24.90;51.30;;;;;;4973470;28;20678;-83
2022/05/31 14:06:10;;;;;;;1.43;0.70;;;24.80;50.70;;;;;;4990766;28;20572;-83